sensor_id;sensor_type;location;lat;lon;timestamp;P1;durP1;ratioP1;P2;durP2;ratioP2
46751;SDS011;32497;48.936;9.270;2023-02-11T00:02:56;10.87;;;3.10;;
46751;SDS011;32497;48.936;9.270;2023-02-11T00:07:57;4.70;;;2.53;;
46751;SDS011;32497;48.936;9.270;2023-02-11T00:12:58;4.97;;;1.90;;
46751;SDS011;32497;48.936;9.270;2023-02-11T00:18:01;10.47;;;4.17;;
46751;SDS011;32497;48.936;9.270;2023-02-11T00:23:02;3.73;;;2.10;;
46751;SDS011;32497;48.936;9.270;2023-02-11T00:28:03;6.03;;;2.60;;
46751;SDS011;32497;48.936;9.270;2023-02-11T00:33:06;12.97;;;2.77;;
46751;SDS011;32497;48.936;9.270;2023-02-11T00:38:07;5.00;;;2.90;;
46751;SDS011;32497;48.936;9.270;2023-02-11T00:43:08;7.83;;;2.50;;
46751;SDS011;32497;48.936;9.270;2023-02-11T00:48:10;6.30;;;2.70;;
46751;SDS011;32497;48.936;9.270;2023-02-11T00:53:11;6.67;;;3.33;;
46751;SDS011;32497;48.936;9.270;2023-02-11T00:58:13;8.67;;;3.67;;
46751;SDS011;32497;48.936;9.270;2023-02-11T01:03:17;9.03;;;3.40;;
46751;SDS011;32497;48.936;9.270;2023-02-11T01:08:18;7.40;;;2.87;;
46751;SDS011;32497;48.936;9.270;2023-02-11T01:13:20;5.73;;;2.53;;
46751;SDS011;32497;48.936;9.270;2023-02-11T01:18:22;13.43;;;2.80;;
46751;SDS011;32497;48.936;9.270;2023-02-11T01:23:24;3.10;;;2.27;;
46751;SDS011;32497;48.936;9.270;2023-02-11T01:28:26;9.57;;;3.40;;
46751;SDS011;32497;48.936;9.270;2023-02-11T01:33:29;6.93;;;2.97;;
46751;SDS011;32497;48.936;9.270;2023-02-11T01:38:32;5.47;;;2.23;;
46751;SDS011;32497;48.936;9.270;2023-02-11T01:43:34;7.57;;;2.97;;
46751;SDS011;32497;48.936;9.270;2023-02-11T01:48:39;4.70;;;2.37;;
46751;SDS011;32497;48.936;9.270;2023-02-11T01:53:42;4.60;;;2.43;;
46751;SDS011;32497;48.936;9.270;2023-02-11T01:58:44;6.90;;;2.57;;
46751;SDS011;32497;48.936;9.270;2023-02-11T02:03:53;6.87;;;2.00;;
46751;SDS011;32497;48.936;9.270;2023-02-11T02:08:59;4.03;;;3.17;;
46751;SDS011;32497;48.936;9.270;2023-02-11T02:14:03;6.93;;;3.33;;
46751;SDS011;32497;48.936;9.270;2023-02-11T02:19:23;8.00;;;3.43;;
46751;SDS011;32497;48.936;9.270;2023-02-11T02:24:57;7.50;;;3.17;;
46751;SDS011;32497;48.936;9.270;2023-02-11T02:30:24;11.50;;;3.47;;
46751;SDS011;32497;48.936;9.270;2023-02-11T02:35:50;8.87;;;3.97;;
46751;SDS011;32497;48.936;9.270;2023-02-11T02:40:58;6.57;;;3.50;;
46751;SDS011;32497;48.936;9.270;2023-02-11T02:46:12;6.63;;;2.83;;
46751;SDS011;32497;48.936;9.270;2023-02-11T02:51:40;5.17;;;2.70;;
46751;SDS011;32497;48.936;9.270;2023-02-11T02:57:00;12.70;;;3.07;;
46751;SDS011;32497;48.936;9.270;2023-02-11T03:02:09;4.17;;;2.13;;
46751;SDS011;32497;48.936;9.270;2023-02-11T03:07:19;4.17;;;2.40;;
46751;SDS011;32497;48.936;9.270;2023-02-11T03:12:27;10.00;;;2.97;;
46751;SDS011;32497;48.936;9.270;2023-02-11T03:17:30;8.03;;;3.80;;
46751;SDS011;32497;48.936;9.270;2023-02-11T03:22:36;6.10;;;2.63;;
46751;SDS011;32497;48.936;9.270;2023-02-11T03:27:42;7.67;;;2.73;;
46751;SDS011;32497;48.936;9.270;2023-02-11T03:32:52;4.93;;;2.80;;
46751;SDS011;32497;48.936;9.270;2023-02-11T03:38:00;3.97;;;2.27;;
46751;SDS011;32497;48.936;9.270;2023-02-11T03:43:06;8.80;;;3.07;;
46751;SDS011;32497;48.936;9.270;2023-02-11T03:48:10;8.53;;;3.03;;
46751;SDS011;32497;48.936;9.270;2023-02-11T03:53:16;9.80;;;3.27;;
46751;SDS011;32497;48.936;9.270;2023-02-11T03:58:19;3.57;;;2.47;;
46751;SDS011;32497;48.936;9.270;2023-02-11T04:03:21;8.83;;;4.10;;
46751;SDS011;32497;48.936;9.270;2023-02-11T04:08:23;7.17;;;3.17;;
46751;SDS011;32497;48.936;9.270;2023-02-11T04:13:24;3.73;;;2.20;;
46751;SDS011;32497;48.936;9.270;2023-02-11T04:18:26;7.97;;;4.07;;
46751;SDS011;32497;48.936;9.270;2023-02-11T04:23:28;7.57;;;3.33;;
46751;SDS011;32497;48.936;9.270;2023-02-11T04:28:29;10.53;;;3.90;;
46751;SDS011;32497;48.936;9.270;2023-02-11T04:33:30;7.83;;;3.50;;
46751;SDS011;32497;48.936;9.270;2023-02-11T04:38:33;7.40;;;4.10;;
46751;SDS011;32497;48.936;9.270;2023-02-11T04:43:34;6.53;;;3.57;;
46751;SDS011;32497;48.936;9.270;2023-02-11T04:48:35;14.80;;;3.87;;
46751;SDS011;32497;48.936;9.270;2023-02-11T04:53:37;7.27;;;3.10;;
46751;SDS011;32497;48.936;9.270;2023-02-11T04:58:39;7.93;;;3.60;;
46751;SDS011;32497;48.936;9.270;2023-02-11T05:03:40;14.57;;;3.93;;
46751;SDS011;32497;48.936;9.270;2023-02-11T05:08:42;9.00;;;2.57;;
46751;SDS011;32497;48.936;9.270;2023-02-11T05:13:44;9.53;;;3.53;;
46751;SDS011;32497;48.936;9.270;2023-02-11T05:18:45;11.80;;;2.97;;
46751;SDS011;32497;48.936;9.270;2023-02-11T05:23:47;6.23;;;3.20;;
46751;SDS011;32497;48.936;9.270;2023-02-11T05:28:49;7.40;;;3.40;;
46751;SDS011;32497;48.936;9.270;2023-02-11T05:33:50;6.13;;;3.10;;
46751;SDS011;32497;48.936;9.270;2023-02-11T05:38:52;8.20;;;4.37;;
46751;SDS011;32497;48.936;9.270;2023-02-11T05:43:53;5.33;;;2.73;;
46751;SDS011;32497;48.936;9.270;2023-02-11T05:48:54;4.53;;;2.87;;
46751;SDS011;32497;48.936;9.270;2023-02-11T05:53:57;6.70;;;3.03;;
46751;SDS011;32497;48.936;9.270;2023-02-11T05:58:58;6.83;;;2.70;;
46751;SDS011;32497;48.936;9.270;2023-02-11T06:03:59;9.83;;;3.57;;
46751;SDS011;32497;48.936;9.270;2023-02-11T06:09:02;8.93;;;3.57;;
46751;SDS011;32497;48.936;9.270;2023-02-11T06:14:08;8.03;;;3.50;;
46751;SDS011;32497;48.936;9.270;2023-02-11T06:19:09;7.57;;;3.33;;
46751;SDS011;32497;48.936;9.270;2023-02-11T06:24:12;4.40;;;2.77;;
46751;SDS011;32497;48.936;9.270;2023-02-11T06:29:13;8.83;;;2.67;;
46751;SDS011;32497;48.936;9.270;2023-02-11T06:34:14;10.93;;;3.80;;
46751;SDS011;32497;48.936;9.270;2023-02-11T06:39:16;11.30;;;4.00;;
46751;SDS011;32497;48.936;9.270;2023-02-11T06:44:18;10.17;;;3.50;;
46751;SDS011;32497;48.936;9.270;2023-02-11T06:49:19;8.40;;;4.73;;
46751;SDS011;32497;48.936;9.270;2023-02-11T06:54:21;9.00;;;3.10;;
46751;SDS011;32497;48.936;9.270;2023-02-11T06:59:22;9.63;;;3.90;;
46751;SDS011;32497;48.936;9.270;2023-02-11T07:04:23;7.33;;;3.20;;
46751;SDS011;32497;48.936;9.270;2023-02-11T07:09:26;10.87;;;3.10;;
46751;SDS011;32497;48.936;9.270;2023-02-11T07:14:27;5.50;;;2.80;;
46751;SDS011;32497;48.936;9.270;2023-02-11T07:19:28;11.67;;;3.47;;
46751;SDS011;32497;48.936;9.270;2023-02-11T07:24:31;6.10;;;3.07;;
46751;SDS011;32497;48.936;9.270;2023-02-11T07:29:32;8.43;;;3.20;;
46751;SDS011;32497;48.936;9.270;2023-02-11T07:34:33;8.80;;;4.90;;
46751;SDS011;32497;48.936;9.270;2023-02-11T07:39:36;8.00;;;4.17;;
46751;SDS011;32497;48.936;9.270;2023-02-11T07:44:37;11.50;;;4.83;;
46751;SDS011;32497;48.936;9.270;2023-02-11T07:49:38;10.03;;;4.00;;
46751;SDS011;32497;48.936;9.270;2023-02-11T07:54:41;8.67;;;4.43;;
46751;SDS011;32497;48.936;9.270;2023-02-11T07:59:42;11.57;;;5.37;;
46751;SDS011;32497;48.936;9.270;2023-02-11T08:04:44;9.63;;;4.53;;
46751;SDS011;32497;48.936;9.270;2023-02-11T08:09:46;11.03;;;3.90;;
46751;SDS011;32497;48.936;9.270;2023-02-11T08:14:48;9.73;;;4.53;;
46751;SDS011;32497;48.936;9.270;2023-02-11T08:19:49;9.23;;;4.03;;
46751;SDS011;32497;48.936;9.270;2023-02-11T08:24:51;11.10;;;4.97;;
46751;SDS011;32497;48.936;9.270;2023-02-11T08:29:52;10.70;;;3.63;;
46751;SDS011;32497;48.936;9.270;2023-02-11T08:34:55;12.40;;;3.60;;
46751;SDS011;32497;48.936;9.270;2023-02-11T08:39:57;11.97;;;4.70;;
46751;SDS011;32497;48.936;9.270;2023-02-11T08:44:58;12.87;;;4.03;;
46751;SDS011;32497;48.936;9.270;2023-02-11T08:50:00;9.97;;;4.03;;
46751;SDS011;32497;48.936;9.270;2023-02-11T08:55:02;15.20;;;4.50;;
46751;SDS011;32497;48.936;9.270;2023-02-11T09:00:04;8.37;;;4.63;;
46751;SDS011;32497;48.936;9.270;2023-02-11T09:05:06;13.83;;;5.83;;
46751;SDS011;32497;48.936;9.270;2023-02-11T09:10:09;8.90;;;4.53;;
46751;SDS011;32497;48.936;9.270;2023-02-11T09:15:10;10.97;;;4.20;;
46751;SDS011;32497;48.936;9.270;2023-02-11T09:20:11;10.37;;;5.53;;
46751;SDS011;32497;48.936;9.270;2023-02-11T09:25:13;11.10;;;4.43;;
46751;SDS011;32497;48.936;9.270;2023-02-11T09:30:15;14.37;;;4.80;;
46751;SDS011;32497;48.936;9.270;2023-02-11T09:35:16;11.97;;;5.00;;
46751;SDS011;32497;48.936;9.270;2023-02-11T09:40:18;12.73;;;3.90;;
46751;SDS011;32497;48.936;9.270;2023-02-11T09:45:21;9.07;;;3.67;;
46751;SDS011;32497;48.936;9.270;2023-02-11T09:50:26;10.30;;;5.20;;
46751;SDS011;32497;48.936;9.270;2023-02-11T09:55:32;10.93;;;4.57;;
46751;SDS011;32497;48.936;9.270;2023-02-11T10:00:36;7.87;;;3.77;;
46751;SDS011;32497;48.936;9.270;2023-02-11T10:05:46;11.47;;;4.10;;
46751;SDS011;32497;48.936;9.270;2023-02-11T10:11:05;8.97;;;4.40;;
46751;SDS011;32497;48.936;9.270;2023-02-11T10:16:14;18.50;;;5.20;;
46751;SDS011;32497;48.936;9.270;2023-02-11T10:21:26;8.60;;;3.30;;
46751;SDS011;32497;48.936;9.270;2023-02-11T10:26:33;6.50;;;3.20;;
46751;SDS011;32497;48.936;9.270;2023-02-11T10:31:36;8.33;;;3.60;;
46751;SDS011;32497;48.936;9.270;2023-02-11T10:36:43;9.60;;;4.20;;
46751;SDS011;32497;48.936;9.270;2023-02-11T10:41:46;7.93;;;3.30;;
46751;SDS011;32497;48.936;9.270;2023-02-11T10:46:50;11.33;;;4.27;;
46751;SDS011;32497;48.936;9.270;2023-02-11T10:51:54;7.20;;;2.80;;
46751;SDS011;32497;48.936;9.270;2023-02-11T10:57:17;12.13;;;2.90;;
46751;SDS011;32497;48.936;9.270;2023-02-11T11:02:20;6.73;;;3.07;;
46751;SDS011;32497;48.936;9.270;2023-02-11T11:07:24;7.83;;;3.07;;
46751;SDS011;32497;48.936;9.270;2023-02-11T11:12:33;6.63;;;2.83;;
46751;SDS011;32497;48.936;9.270;2023-02-11T11:17:36;5.07;;;2.47;;
46751;SDS011;32497;48.936;9.270;2023-02-11T11:22:37;7.23;;;3.43;;
46751;SDS011;32497;48.936;9.270;2023-02-11T11:27:41;8.87;;;3.00;;
46751;SDS011;32497;48.936;9.270;2023-02-11T11:32:47;4.43;;;2.90;;
46751;SDS011;32497;48.936;9.270;2023-02-11T11:37:51;5.23;;;2.83;;
46751;SDS011;32497;48.936;9.270;2023-02-11T11:43:03;9.33;;;3.97;;
46751;SDS011;32497;48.936;9.270;2023-02-11T11:48:17;10.13;;;4.03;;
46751;SDS011;32497;48.936;9.270;2023-02-11T11:53:24;6.93;;;3.43;;
46751;SDS011;32497;48.936;9.270;2023-02-11T11:58:36;6.30;;;2.87;;
46751;SDS011;32497;48.936;9.270;2023-02-11T12:09:08;4.90;;;2.87;;
46751;SDS011;32497;48.936;9.270;2023-02-11T12:14:22;5.40;;;3.00;;
46751;SDS011;32497;48.936;9.270;2023-02-11T12:19:37;4.63;;;2.80;;
46751;SDS011;32497;48.936;9.270;2023-02-11T12:25:04;7.27;;;3.43;;
46751;SDS011;32497;48.936;9.270;2023-02-11T12:35:54;7.13;;;3.00;;
46751;SDS011;32497;48.936;9.270;2023-02-11T12:41:02;11.20;;;3.70;;
46751;SDS011;32497;48.936;9.270;2023-02-11T12:46:20;12.20;;;4.10;;
46751;SDS011;32497;48.936;9.270;2023-02-11T12:51:48;6.47;;;2.60;;
46751;SDS011;32497;48.936;9.270;2023-02-11T12:57:00;12.17;;;4.23;;
46751;SDS011;32497;48.936;9.270;2023-02-11T13:02:10;8.43;;;3.77;;
46751;SDS011;32497;48.936;9.270;2023-02-11T13:07:21;9.60;;;3.77;;
46751;SDS011;32497;48.936;9.270;2023-02-11T13:12:28;7.23;;;3.00;;
46751;SDS011;32497;48.936;9.270;2023-02-11T13:17:34;5.53;;;2.87;;
46751;SDS011;32497;48.936;9.270;2023-02-11T13:22:42;6.47;;;2.88;;
46751;SDS011;32497;48.936;9.270;2023-02-11T13:27:47;6.00;;;2.85;;
46751;SDS011;32497;48.936;9.270;2023-02-11T13:33:02;5.50;;;2.40;;
46751;SDS011;32497;48.936;9.270;2023-02-11T13:38:17;8.45;;;2.55;;
46751;SDS011;32497;48.936;9.270;2023-02-11T13:43:21;3.72;;;2.17;;
46751;SDS011;32497;48.936;9.270;2023-02-11T13:48:26;4.45;;;2.40;;
46751;SDS011;32497;48.936;9.270;2023-02-11T13:53:39;5.53;;;3.10;;
46751;SDS011;32497;48.936;9.270;2023-02-11T13:58:46;4.43;;;2.45;;
46751;SDS011;32497;48.936;9.270;2023-02-11T14:09:37;8.10;;;2.67;;
46751;SDS011;32497;48.936;9.270;2023-02-11T14:20:01;4.68;;;2.53;;
46751;SDS011;32497;48.936;9.270;2023-02-11T14:25:24;6.47;;;2.92;;
46751;SDS011;32497;48.936;9.270;2023-02-11T14:30:28;5.70;;;2.70;;
46751;SDS011;32497;48.936;9.270;2023-02-11T14:35:46;6.60;;;2.70;;
46751;SDS011;32497;48.936;9.270;2023-02-11T14:41:04;5.13;;;3.00;;
46751;SDS011;32497;48.936;9.270;2023-02-11T14:46:09;7.87;;;3.07;;
46751;SDS011;32497;48.936;9.270;2023-02-11T14:51:14;7.47;;;3.23;;
46751;SDS011;32497;48.936;9.270;2023-02-11T14:56:19;6.73;;;4.03;;
46751;SDS011;32497;48.936;9.270;2023-02-11T15:01:24;6.93;;;3.63;;
46751;SDS011;32497;48.936;9.270;2023-02-11T15:06:29;7.47;;;3.47;;
46751;SDS011;32497;48.936;9.270;2023-02-11T15:11:33;12.33;;;4.67;;
46751;SDS011;32497;48.936;9.270;2023-02-11T15:16:39;9.47;;;3.97;;
46751;SDS011;32497;48.936;9.270;2023-02-11T15:21:44;7.60;;;3.50;;
46751;SDS011;32497;48.936;9.270;2023-02-11T15:26:54;7.83;;;4.00;;
46751;SDS011;32497;48.936;9.270;2023-02-11T15:32:02;14.30;;;5.27;;
46751;SDS011;32497;48.936;9.270;2023-02-11T15:37:06;9.13;;;4.10;;
46751;SDS011;32497;48.936;9.270;2023-02-11T15:42:17;11.03;;;4.57;;
46751;SDS011;32497;48.936;9.270;2023-02-11T15:47:24;11.30;;;4.70;;
46751;SDS011;32497;48.936;9.270;2023-02-11T15:52:30;9.60;;;5.43;;
46751;SDS011;32497;48.936;9.270;2023-02-11T15:57:32;11.20;;;4.73;;
46751;SDS011;32497;48.936;9.270;2023-02-11T16:02:33;11.60;;;5.17;;
46751;SDS011;32497;48.936;9.270;2023-02-11T16:07:37;9.73;;;4.73;;
46751;SDS011;32497;48.936;9.270;2023-02-11T16:12:49;15.07;;;4.53;;
46751;SDS011;32497;48.936;9.270;2023-02-11T16:17:55;10.30;;;4.47;;
46751;SDS011;32497;48.936;9.270;2023-02-11T16:22:58;9.40;;;4.77;;
46751;SDS011;32497;48.936;9.270;2023-02-11T16:28:00;18.00;;;5.10;;
46751;SDS011;32497;48.936;9.270;2023-02-11T16:33:01;11.90;;;4.87;;
46751;SDS011;32497;48.936;9.270;2023-02-11T16:38:04;12.33;;;4.80;;
46751;SDS011;32497;48.936;9.270;2023-02-11T16:43:05;10.63;;;4.47;;
46751;SDS011;32497;48.936;9.270;2023-02-11T16:48:07;11.07;;;4.90;;
46751;SDS011;32497;48.936;9.270;2023-02-11T16:53:13;10.37;;;4.77;;
46751;SDS011;32497;48.936;9.270;2023-02-11T16:58:18;10.83;;;4.53;;
46751;SDS011;32497;48.936;9.270;2023-02-11T17:03:19;12.67;;;5.07;;
46751;SDS011;32497;48.936;9.270;2023-02-11T17:08:24;10.27;;;5.50;;
46751;SDS011;32497;48.936;9.270;2023-02-11T17:13:25;12.93;;;5.77;;
46751;SDS011;32497;48.936;9.270;2023-02-11T17:18:26;12.90;;;4.90;;
46751;SDS011;32497;48.936;9.270;2023-02-11T17:23:28;14.30;;;6.57;;
46751;SDS011;32497;48.936;9.270;2023-02-11T17:28:29;14.50;;;6.30;;
46751;SDS011;32497;48.936;9.270;2023-02-11T17:33:31;15.03;;;6.43;;
46751;SDS011;32497;48.936;9.270;2023-02-11T17:38:33;12.40;;;5.80;;
46751;SDS011;32497;48.936;9.270;2023-02-11T17:43:35;12.87;;;6.23;;
46751;SDS011;32497;48.936;9.270;2023-02-11T17:48:37;13.60;;;5.87;;
46751;SDS011;32497;48.936;9.270;2023-02-11T17:53:39;12.93;;;6.10;;
46751;SDS011;32497;48.936;9.270;2023-02-11T17:58:40;12.23;;;5.73;;
46751;SDS011;32497;48.936;9.270;2023-02-11T18:03:42;12.50;;;5.23;;
46751;SDS011;32497;48.936;9.270;2023-02-11T18:08:44;14.47;;;5.57;;
46751;SDS011;32497;48.936;9.270;2023-02-11T18:13:45;11.07;;;5.70;;
46751;SDS011;32497;48.936;9.270;2023-02-11T18:18:46;12.00;;;6.07;;
46751;SDS011;32497;48.936;9.270;2023-02-11T18:23:49;11.67;;;5.30;;
46751;SDS011;32497;48.936;9.270;2023-02-11T18:28:50;10.67;;;6.10;;
46751;SDS011;32497;48.936;9.270;2023-02-11T18:33:51;15.20;;;6.40;;
46751;SDS011;32497;48.936;9.270;2023-02-11T18:38:54;10.33;;;5.10;;
46751;SDS011;32497;48.936;9.270;2023-02-11T18:43:56;9.47;;;5.43;;
46751;SDS011;32497;48.936;9.270;2023-02-11T18:48:57;15.90;;;6.57;;
46751;SDS011;32497;48.936;9.270;2023-02-11T18:54:00;14.73;;;6.03;;
46751;SDS011;32497;48.936;9.270;2023-02-11T18:59:01;15.03;;;6.40;;
46751;SDS011;32497;48.936;9.270;2023-02-11T19:04:03;14.67;;;5.77;;
46751;SDS011;32497;48.936;9.270;2023-02-11T19:09:13;9.70;;;5.30;;
46751;SDS011;32497;48.936;9.270;2023-02-11T19:14:17;12.53;;;6.07;;
46751;SDS011;32497;48.936;9.270;2023-02-11T19:19:21;13.43;;;5.27;;
46751;SDS011;32497;48.936;9.270;2023-02-11T19:24:25;10.17;;;5.33;;
46751;SDS011;32497;48.936;9.270;2023-02-11T19:29:27;11.37;;;5.27;;
46751;SDS011;32497;48.936;9.270;2023-02-11T19:34:29;11.27;;;5.13;;
46751;SDS011;32497;48.936;9.270;2023-02-11T19:39:31;13.83;;;5.17;;
46751;SDS011;32497;48.936;9.270;2023-02-11T19:44:32;11.23;;;5.10;;
46751;SDS011;32497;48.936;9.270;2023-02-11T19:49:33;10.87;;;5.13;;
46751;SDS011;32497;48.936;9.270;2023-02-11T19:54:36;10.50;;;5.07;;
46751;SDS011;32497;48.936;9.270;2023-02-11T19:59:37;15.77;;;5.77;;
46751;SDS011;32497;48.936;9.270;2023-02-11T20:04:39;12.53;;;5.30;;
46751;SDS011;32497;48.936;9.270;2023-02-11T20:09:41;15.07;;;6.20;;
46751;SDS011;32497;48.936;9.270;2023-02-11T20:14:42;14.40;;;6.47;;
46751;SDS011;32497;48.936;9.270;2023-02-11T20:19:43;14.50;;;6.27;;
46751;SDS011;32497;48.936;9.270;2023-02-11T20:24:46;15.47;;;5.63;;
46751;SDS011;32497;48.936;9.270;2023-02-11T20:29:47;14.87;;;6.63;;
46751;SDS011;32497;48.936;9.270;2023-02-11T20:34:48;13.87;;;6.40;;
46751;SDS011;32497;48.936;9.270;2023-02-11T20:39:51;15.40;;;5.93;;
46751;SDS011;32497;48.936;9.270;2023-02-11T20:44:52;15.33;;;6.70;;
46751;SDS011;32497;48.936;9.270;2023-02-11T20:49:53;13.40;;;5.87;;
46751;SDS011;32497;48.936;9.270;2023-02-11T20:54:56;20.00;;;7.00;;
46751;SDS011;32497;48.936;9.270;2023-02-11T20:59:57;12.67;;;5.97;;
46751;SDS011;32497;48.936;9.270;2023-02-11T21:04:58;14.73;;;7.17;;
46751;SDS011;32497;48.936;9.270;2023-02-11T21:10:00;16.03;;;7.37;;
46751;SDS011;32497;48.936;9.270;2023-02-11T21:15:02;18.07;;;7.90;;
46751;SDS011;32497;48.936;9.270;2023-02-11T21:20:04;15.43;;;6.80;;
46751;SDS011;32497;48.936;9.270;2023-02-11T21:25:07;21.53;;;7.77;;
46751;SDS011;32497;48.936;9.270;2023-02-11T21:30:09;25.90;;;8.50;;
46751;SDS011;32497;48.936;9.270;2023-02-11T21:35:10;17.27;;;7.87;;
46751;SDS011;32497;48.936;9.270;2023-02-11T21:40:13;18.83;;;8.33;;
46751;SDS011;32497;48.936;9.270;2023-02-11T21:45:14;15.57;;;7.43;;
46751;SDS011;32497;48.936;9.270;2023-02-11T21:50:15;16.20;;;7.93;;
46751;SDS011;32497;48.936;9.270;2023-02-11T21:55:18;13.47;;;6.90;;
46751;SDS011;32497;48.936;9.270;2023-02-11T22:00:19;15.53;;;7.00;;
46751;SDS011;32497;48.936;9.270;2023-02-11T22:05:21;16.27;;;7.53;;
46751;SDS011;32497;48.936;9.270;2023-02-11T22:10:23;16.07;;;7.23;;
46751;SDS011;32497;48.936;9.270;2023-02-11T22:15:25;10.83;;;6.57;;
46751;SDS011;32497;48.936;9.270;2023-02-11T22:20:26;13.00;;;6.57;;
46751;SDS011;32497;48.936;9.270;2023-02-11T22:25:28;13.40;;;6.67;;
46751;SDS011;32497;48.936;9.270;2023-02-11T22:30:29;12.43;;;6.43;;
46751;SDS011;32497;48.936;9.270;2023-02-11T22:35:30;14.77;;;6.47;;
46751;SDS011;32497;48.936;9.270;2023-02-11T22:40:33;12.63;;;6.77;;
46751;SDS011;32497;48.936;9.270;2023-02-11T22:45:34;14.40;;;6.93;;
46751;SDS011;32497;48.936;9.270;2023-02-11T22:50:35;11.50;;;6.23;;
46751;SDS011;32497;48.936;9.270;2023-02-11T22:55:38;18.50;;;6.77;;
46751;SDS011;32497;48.936;9.270;2023-02-11T23:00:39;20.53;;;7.27;;
46751;SDS011;32497;48.936;9.270;2023-02-11T23:05:41;15.87;;;7.27;;
46751;SDS011;32497;48.936;9.270;2023-02-11T23:10:44;16.63;;;7.10;;
46751;SDS011;32497;48.936;9.270;2023-02-11T23:15:45;15.00;;;7.27;;
46751;SDS011;32497;48.936;9.270;2023-02-11T23:20:47;15.80;;;7.83;;
46751;SDS011;32497;48.936;9.270;2023-02-11T23:25:49;14.00;;;6.93;;
46751;SDS011;32497;48.936;9.270;2023-02-11T23:30:50;12.93;;;5.53;;
46751;SDS011;32497;48.936;9.270;2023-02-11T23:35:51;15.73;;;7.63;;
46751;SDS011;32497;48.936;9.270;2023-02-11T23:40:54;20.77;;;8.13;;
46751;SDS011;32497;48.936;9.270;2023-02-11T23:45:55;16.27;;;7.73;;
46751;SDS011;32497;48.936;9.270;2023-02-11T23:50:56;15.17;;;6.20;;
46751;SDS011;32497;48.936;9.270;2023-02-11T23:55:58;15.43;;;6.60;;
